Hellebaek, Denmark
Current Conditions -  °F | °C
As of 3:50 AM on Monday 22 Dec 2014 (Local Time) from ESTA Reporting Station
Light Rain Light Rain  
Wind Chill: 39°   Ceiling: 500
Heat Index: 46°   Visibility: 5mi
Dew Point: 45°   Wind: 20mph
Humidity: 93%   Direction: 250°WSW
Pressure: 29.44"   Gusts: NA
Location:  56.07°N, 12.56°E
Report Text: ESTA 220250Z AUTO 25017KT 8000 -RA OVC005/// 08/07 Q0997
Loading
Personal Weather Stations






























Interactive Weather Map New forecast layout! Learn more

10-Day Weather Forecast

Advertisements
Track Severe Weather on mobile